Natercia, Brazil
Current Conditions -  °F | °C
As of 8:00 PM on Wednesday 28 Jan 2015 (Local Time) from SBGW Reporting Station
Few Clouds Few Clouds  
Wind Chill: 81°   Ceiling: Unl
Heat Index: 83°   Visibility: 6mi
Dew Point: 66°   Wind: 8mph
Humidity: 61%   Direction: 40°NE
Pressure: 29.94"   Gusts: NA
Location:  22.12°S, 45.51°W
Report Text: SBGW 282200Z 04007KT 9999 FEW020 27/19 Q1014
Loading
Personal Weather Stations






























Interactive Weather Map New forecast layout! Learn more

10-Day Weather Forecast

Advertisements
Track Severe Weather on mobile